Time;durP1;ratioP1;P1;durP2;ratioP2;P2;SDS_P1;SDS_P2;PMS_P1;PMS_P2;Temp;Humidity;BMP_temperature;BMP_pressure;BME280_temperature;BME280_humidity;BME280_pressure;Samples;Min_cycle;Max_cycle;Signal;HPM_P1;HPM_P2
2022/03/22 00:01:41;;;;;;;17.20;9.38;;;3.60;99.90;;;;;;1848394;76;21095;-73
2022/03/22 00:04:08;;;;;;;14.55;9.75;;;3.60;99.90;;;;;;1847515;77;21139;-73
2022/03/22 00:06:35;;;;;;;13.48;8.98;;;3.50;99.90;;;;;;1847330;76;21527;-73
2022/03/22 00:09:03;;;;;;;16.70;10.40;;;3.50;99.90;;;;;;1855856;76;21091;-74
2022/03/22 00:11:33;;;;;;;16.65;10.63;;;3.40;99.90;;;;;;1851170;76;21245;-74
2022/03/22 00:13:59;;;;;;;14.30;10.05;;;3.40;99.90;;;;;;1849564;76;21097;-73
2022/03/22 00:16:26;;;;;;;19.17;10.58;;;3.40;99.90;;;;;;1847785;77;21244;-73
2022/03/22 00:18:54;;;;;;;16.20;9.95;;;3.40;99.90;;;;;;1853088;76;21138;-75
2022/03/22 00:21:21;;;;;;;20.88;9.98;;;3.40;99.90;;;;;;1850475;76;21072;-74
2022/03/22 00:23:50;;;;;;;15.43;9.85;;;3.40;99.90;;;;;;1847213;76;21123;-73
2022/03/22 00:26:17;;;;;;;16.35;9.35;;;3.40;99.90;;;;;;1851547;76;21092;-74
2022/03/22 00:28:45;;;;;;;15.75;10.55;;;3.30;99.90;;;;;;1849421;76;21120;-74
2022/03/22 00:31:12;;;;;;;13.80;9.78;;;3.20;99.90;;;;;;1847654;77;21491;-72
2022/03/22 00:33:39;;;;;;;15.43;10.32;;;3.20;99.90;;;;;;1854084;76;21159;-74
2022/03/22 00:36:13;;;;;;;17.42;9.98;;;3.20;99.90;;;;;;1849080;76;21231;-73
2022/03/22 00:38:40;;;;;;;13.98;9.98;;;3.10;99.90;;;;;;1851399;76;21281;-73
2022/03/22 00:41:08;;;;;;;15.83;10.28;;;3.10;99.90;;;;;;1852070;76;21111;-72
2022/03/22 00:43:35;;;;;;;15.43;10.03;;;3.10;99.90;;;;;;1850672;76;21479;-73
2022/03/22 00:46:03;;;;;;;22.73;10.38;;;3.10;99.90;;;;;;1851775;76;21073;-73
2022/03/22 00:48:30;;;;;;;15.03;9.80;;;3.00;99.90;;;;;;1846167;76;21053;-73
2022/03/22 00:50:57;;;;;;;19.40;10.45;;;2.90;99.90;;;;;;1848316;76;21142;-74
2022/03/22 00:53:25;;;;;;;17.35;10.18;;;3.00;99.90;;;;;;1848793;76;21033;-73
2022/03/22 00:55:52;;;;;;;17.10;10.45;;;3.00;99.90;;;;;;1852771;76;21056;-74
2022/03/22 00:58:19;;;;;;;14.00;10.15;;;3.00;99.90;;;;;;1853812;76;21075;-72
2022/03/22 01:00:48;;;;;;;14.33;9.35;;;2.90;99.90;;;;;;1859634;76;21088;-73
2022/03/22 01:03:15;;;;;;;13.68;9.60;;;2.90;99.90;;;;;;1849458;76;21092;-72
2022/03/22 01:05:44;;;;;;;13.30;8.95;;;2.80;99.90;;;;;;1849039;76;21083;-74
2022/03/22 01:09:03;;;;;;;15.23;9.23;;;2.70;99.90;;;;;;1849927;77;21069;-73
2022/03/22 01:11:30;;;;;;;12.10;8.53;;;2.70;99.90;;;;;;1847970;76;21498;-75
2022/03/22 01:13:57;;;;;;;17.42;9.53;;;2.60;99.90;;;;;;1857890;76;21388;-72
2022/03/22 01:16:25;;;;;;;15.32;10.15;;;2.60;99.90;;;;;;1849812;76;21232;-72
2022/03/22 01:18:52;;;;;;;17.40;10.70;;;2.50;99.90;;;;;;1848667;76;21056;-73
2022/03/22 01:21:19;;;;;;;13.00;9.10;;;2.60;99.90;;;;;;1850267;76;21081;-73
2022/03/22 01:23:50;;;;;;;13.98;9.20;;;2.50;99.90;;;;;;1860846;76;21083;-72
2022/03/22 01:26:16;;;;;;;18.17;9.93;;;2.40;99.90;;;;;;1850829;76;21083;-74
2022/03/22 01:28:43;;;;;;;17.95;10.60;;;2.40;99.90;;;;;;1847996;77;21476;-73
2022/03/22 01:31:10;;;;;;;14.65;10.13;;;2.40;99.90;;;;;;1847748;76;21139;-73
2022/03/22 01:33:38;;;;;;;19.60;10.90;;;2.30;99.90;;;;;;1848880;76;21119;-74
2022/03/22 01:36:05;;;;;;;22.02;11.75;;;2.20;99.90;;;;;;1849447;76;21080;-73
2022/03/22 01:38:32;;;;;;;15.93;10.85;;;2.20;99.90;;;;;;1848999;76;21075;-73
2022/03/22 01:41:00;;;;;;;14.93;10.53;;;2.10;99.90;;;;;;1847898;76;21076;-74
2022/03/22 01:43:27;;;;;;;23.45;12.15;;;2.10;99.90;;;;;;1848831;76;21080;-73
2022/03/22 01:45:54;;;;;;;15.40;10.65;;;2.10;99.90;;;;;;1848675;76;21081;-73
2022/03/22 01:48:22;;;;;;;18.67;11.30;;;2.20;99.90;;;;;;1851530;76;21083;-73
2022/03/22 01:50:50;;;;;;;16.17;10.55;;;2.10;99.90;;;;;;1851232;76;21085;-72
2022/03/22 01:53:17;;;;;;;17.48;11.35;;;2.10;99.90;;;;;;1849606;76;21061;-73
2022/03/22 01:55:45;;;;;;;22.58;12.28;;;2.00;99.90;;;;;;1847637;77;21151;-72
2022/03/22 01:58:14;;;;;;;18.12;11.63;;;2.00;99.90;;;;;;1854914;76;21140;-74
2022/03/22 02:00:41;;;;;;;22.20;12.23;;;2.00;99.90;;;;;;1850564;77;21130;-73
2022/03/22 02:05:56;;;;;;;17.23;11.48;;;1.90;99.90;;;;;;1848245;76;21089;-74
2022/03/22 02:08:29;;;;;;;21.37;12.18;;;1.90;99.90;;;;;;1849872;76;21069;-73
2022/03/22 02:10:59;;;;;;;20.43;11.00;;;1.80;99.90;;;;;;1848749;76;21219;-73
2022/03/22 02:13:28;;;;;;;23.20;12.00;;;1.90;99.90;;;;;;1846806;76;21092;-74
2022/03/22 02:15:58;;;;;;;17.17;11.00;;;1.90;99.90;;;;;;1847926;76;21126;-74
2022/03/22 02:18:25;;;;;;;22.63;11.47;;;1.80;99.90;;;;;;1849468;77;21158;-73
2022/03/22 02:20:53;;;;;;;16.17;11.57;;;1.80;99.90;;;;;;1849170;76;21155;-73
2022/03/22 02:23:22;;;;;;;17.23;11.68;;;1.80;99.90;;;;;;1848090;76;21229;-73
2022/03/22 02:25:53;;;;;;;20.90;12.20;;;1.70;99.90;;;;;;1848834;76;21083;-73
2022/03/22 02:28:21;;;;;;;17.15;11.18;;;1.70;99.90;;;;;;1848829;76;21073;-72
2022/03/22 02:30:50;;;;;;;25.80;12.80;;;1.70;99.90;;;;;;1846511;76;21191;-72
2022/03/22 02:33:17;;;;;;;20.65;11.95;;;1.60;99.90;;;;;;1848624;76;21182;-71
2022/03/22 02:35:46;;;;;;;16.52;11.80;;;1.60;99.90;;;;;;1853331;76;21546;-72
2022/03/22 02:38:13;;;;;;;19.75;12.10;;;1.60;99.90;;;;;;1852979;76;21546;-72
2022/03/22 02:40:40;;;;;;;16.50;11.68;;;1.60;99.90;;;;;;1847912;76;21084;-73
2022/03/22 02:43:08;;;;;;;16.62;11.75;;;1.50;99.90;;;;;;1845248;76;21093;-73
2022/03/22 02:45:35;;;;;;;22.80;13.05;;;1.50;99.90;;;;;;1857379;76;21475;-73
2022/03/22 02:48:02;;;;;;;19.55;11.40;;;1.40;99.90;;;;;;1858891;76;21606;-72
2022/03/22 02:50:30;;;;;;;17.98;12.45;;;1.40;99.90;;;;;;1854919;76;21091;-73
2022/03/22 02:52:57;;;;;;;16.45;12.47;;;1.50;99.90;;;;;;1853237;76;21542;-73
2022/03/22 02:55:24;;;;;;;19.00;12.23;;;1.40;99.90;;;;;;1855597;76;21150;-73
2022/03/22 02:57:51;;;;;;;18.05;11.25;;;1.40;99.90;;;;;;1847612;77;21185;-74
2022/03/22 03:00:20;;;;;;;19.92;11.65;;;1.40;99.90;;;;;;1848279;78;21096;-72
2022/03/22 03:02:49;;;;;;;32.23;11.93;;;1.40;99.90;;;;;;1858939;76;21091;-73
2022/03/22 03:05:17;;;;;;;18.73;12.00;;;1.40;99.90;;;;;;1850579;76;21082;-72
2022/03/22 03:07:45;;;;;;;15.80;11.53;;;1.30;99.90;;;;;;1853787;76;21064;-73
2022/03/22 03:10:12;;;;;;;24.18;11.93;;;1.30;99.90;;;;;;1848141;76;21073;-73
2022/03/22 03:12:39;;;;;;;20.77;12.80;;;1.30;99.90;;;;;;1849366;76;21080;-73
2022/03/22 03:15:08;;;;;;;24.80;12.58;;;1.30;99.90;;;;;;1847704;76;21149;-74
2022/03/22 03:17:36;;;;;;;16.82;11.95;;;1.30;99.90;;;;;;1844168;76;21157;-73
2022/03/22 03:20:07;;;;;;;22.85;12.18;;;1.20;99.90;;;;;;1854134;76;21076;-73
2022/03/22 03:22:35;;;;;;;24.72;13.80;;;1.20;99.90;;;;;;1853083;76;21447;-73
2022/03/22 03:25:03;;;;;;;19.00;12.43;;;1.20;99.90;;;;;;1848650;76;21070;-73
2022/03/22 03:27:30;;;;;;;29.75;12.70;;;1.20;99.90;;;;;;1850362;76;21500;-73
2022/03/22 03:29:57;;;;;;;19.80;11.97;;;1.20;99.90;;;;;;1853639;76;21077;-72
2022/03/22 03:32:25;;;;;;;17.75;12.15;;;1.20;99.90;;;;;;1846889;76;21143;-72
2022/03/22 03:34:52;;;;;;;15.58;11.73;;;1.20;99.90;;;;;;1849204;76;21467;-72
2022/03/22 03:37:19;;;;;;;22.17;11.70;;;1.20;99.90;;;;;;1847641;77;21119;-73
2022/03/22 03:39:47;;;;;;;15.43;11.18;;;1.10;99.90;;;;;;1847534;77;21138;-73
2022/03/22 03:42:14;;;;;;;19.23;11.78;;;1.10;99.90;;;;;;1851904;76;21508;-72
2022/03/22 03:47:46;;;;;;;15.43;11.12;;;1.00;99.90;;;;;;1813557;78;21095;-74
2022/03/22 03:50:14;;;;;;;19.77;11.38;;;1.00;99.90;;;;;;1801504;76;21066;-74
2022/03/22 03:52:41;;;;;;;19.32;12.60;;;1.00;99.90;;;;;;1818535;76;21120;-73
2022/03/22 03:55:09;;;;;;;16.75;12.10;;;0.90;99.90;;;;;;1812009;78;21131;-73
2022/03/22 03:57:37;;;;;;;16.30;11.68;;;1.00;99.90;;;;;;1821187;77;21105;-74
2022/03/22 04:00:04;;;;;;;18.87;13.20;;;0.90;99.90;;;;;;1817381;78;21517;-73
2022/03/22 04:02:32;;;;;;;21.20;12.75;;;0.90;99.90;;;;;;1818496;78;21081;-73
2022/03/22 04:04:59;;;;;;;20.10;12.80;;;0.90;99.90;;;;;;1820517;78;21102;-73
2022/03/22 04:07:27;;;;;;;19.35;12.53;;;0.90;99.90;;;;;;1789187;79;21066;-74
2022/03/22 04:09:54;;;;;;;22.22;13.03;;;0.80;99.90;;;;;;1827635;76;21137;-74
2022/03/22 04:12:26;;;;;;;22.22;13.55;;;0.90;99.90;;;;;;1831214;75;21025;-72
2022/03/22 04:14:51;;;;;;;20.25;12.65;;;0.80;99.90;;;;;;1817951;76;21242;-73
2022/03/22 04:17:18;;;;;;;20.52;12.82;;;0.80;99.90;;;;;;1824775;78;21129;-74
2022/03/22 04:19:46;;;;;;;19.60;12.88;;;0.80;99.90;;;;;;1821653;76;21129;-75
2022/03/22 04:22:13;;;;;;;22.25;12.82;;;0.80;99.90;;;;;;1806790;78;21051;-74
2022/03/22 04:24:41;;;;;;;20.35;12.70;;;0.80;99.90;;;;;;1818600;78;21070;-71
2022/03/22 04:32:42;;;;;;;20.27;12.65;;;0.70;99.90;;;;;;1850463;73;21134;-73
2022/03/22 04:35:12;;;;;;;19.90;13.33;;;0.70;99.90;;;;;;1934865;73;21132;-73
2022/03/22 04:37:39;;;;;;;21.40;13.00;;;0.60;99.90;;;;;;1935107;73;21722;-72
2022/03/22 04:40:07;;;;;;;20.05;12.78;;;0.60;99.90;;;;;;1909544;74;21039;-72
2022/03/22 04:42:35;;;;;;;22.17;12.45;;;0.60;99.90;;;;;;1953417;73;21139;-73
2022/03/22 04:45:03;;;;;;;22.30;13.98;;;0.60;99.90;;;;;;1936304;74;21024;-74
2022/03/22 04:47:30;;;;;;;19.60;12.68;;;0.60;99.90;;;;;;1934035;73;21030;-73
2022/03/22 04:49:57;;;;;;;17.77;11.85;;;0.60;99.90;;;;;;1951820;73;21024;-73
2022/03/22 04:56:43;;;;;;;19.48;12.30;;;0.60;99.90;;;;;;1936320;74;21125;-73
2022/03/22 04:57:48;;;;;;;21.23;13.55;;;0.60;99.90;;;;;;1892916;73;21353;-72
2022/03/22 05:00:15;;;;;;;29.87;13.38;;;0.60;99.90;;;;;;1942040;73;21118;-72
2022/03/22 05:02:42;;;;;;;24.32;13.90;;;0.50;99.90;;;;;;1934272;73;21138;-73
2022/03/22 05:05:10;;;;;;;21.23;13.48;;;0.50;99.90;;;;;;1928987;73;21027;-71
2022/03/22 05:07:37;;;;;;;24.25;13.65;;;0.50;99.90;;;;;;1933416;73;21056;-74
2022/03/22 05:10:05;;;;;;;18.65;11.90;;;0.50;99.90;;;;;;1936478;73;21071;-74
2022/03/22 05:12:32;;;;;;;24.57;12.58;;;0.50;99.90;;;;;;1937931;73;21148;-73
2022/03/22 05:14:59;;;;;;;18.98;12.80;;;0.40;99.90;;;;;;1936911;74;21188;-73
2022/03/22 05:17:27;;;;;;;22.17;13.38;;;0.50;99.90;;;;;;1936940;74;21420;-73
2022/03/22 05:19:54;;;;;;;19.92;12.82;;;0.50;99.90;;;;;;1944125;73;21109;-74
2022/03/22 05:22:21;;;;;;;17.42;12.98;;;0.50;99.90;;;;;;1939304;73;21129;-73
2022/03/22 05:24:49;;;;;;;22.77;12.75;;;0.50;99.90;;;;;;1937874;73;21129;-75
2022/03/22 05:27:18;;;;;;;20.48;12.98;;;0.50;99.90;;;;;;1935196;73;21067;-75
2022/03/22 05:29:47;;;;;;;19.07;13.43;;;0.50;99.90;;;;;;1937708;73;21148;-75
2022/03/22 05:32:14;;;;;;;17.52;12.98;;;0.50;99.90;;;;;;1938164;73;21107;-75
2022/03/22 05:34:45;;;;;;;18.73;13.03;;;0.50;99.90;;;;;;1935007;73;21066;-74
2022/03/22 05:37:13;;;;;;;22.02;12.75;;;0.60;99.90;;;;;;1940575;73;21162;-76
2022/03/22 05:39:41;;;;;;;18.65;12.88;;;0.50;99.90;;;;;;1937295;73;21044;-75
2022/03/22 05:42:08;;;;;;;19.75;13.20;;;0.50;99.90;;;;;;1936178;73;21129;-73
2022/03/22 05:44:35;;;;;;;22.67;13.83;;;0.60;99.90;;;;;;1908394;73;21043;-74
2022/03/22 05:47:03;;;;;;;22.30;13.70;;;0.70;99.90;;;;;;1940856;73;21137;-75
2022/03/22 05:49:33;;;;;;;22.17;14.13;;;0.70;99.90;;;;;;1936219;74;21492;-75
2022/03/22 05:52:00;;;;;;;22.77;13.32;;;0.80;99.90;;;;;;1932066;73;21097;-75
2022/03/22 05:54:27;;;;;;;23.38;14.90;;;0.80;99.90;;;;;;1932769;73;21209;-75
2022/03/22 05:56:55;;;;;;;23.20;13.68;;;0.80;99.90;;;;;;1932598;73;21472;-74
2022/03/22 05:59:22;;;;;;;21.70;13.62;;;0.80;99.90;;;;;;1933594;73;21454;-74
2022/03/22 06:01:49;;;;;;;24.10;13.32;;;0.80;99.90;;;;;;1936187;73;21055;-74
2022/03/22 06:04:17;;;;;;;19.02;13.43;;;0.90;99.90;;;;;;1936938;73;21447;-72
2022/03/22 06:06:44;;;;;;;22.37;14.53;;;0.90;99.90;;;;;;1939382;73;21060;-73
2022/03/22 06:09:11;;;;;;;19.42;13.00;;;0.80;99.90;;;;;;1933044;73;21149;-72
2022/03/22 06:11:39;;;;;;;24.00;14.23;;;0.90;99.90;;;;;;1930522;73;21054;-72
2022/03/22 06:14:06;;;;;;;22.95;13.90;;;1.00;99.90;;;;;;1939833;73;21071;-71
2022/03/22 06:16:35;;;;;;;22.00;12.63;;;1.10;99.90;;;;;;1932521;73;21133;-71
2022/03/22 06:19:03;;;;;;;22.10;13.55;;;1.10;99.90;;;;;;1936065;74;21020;-71
2022/03/22 06:21:30;;;;;;;20.62;14.30;;;1.10;99.90;;;;;;1929524;73;21145;-71
2022/03/22 06:23:57;;;;;;;18.37;14.07;;;1.20;99.90;;;;;;1936005;74;21119;-71
2022/03/22 06:26:24;;;;;;;23.95;14.65;;;1.20;99.90;;;;;;1934500;73;21176;-70
2022/03/22 06:28:52;;;;;;;22.15;15.58;;;1.10;99.90;;;;;;1947571;73;21055;-70
2022/03/22 06:31:20;;;;;;;21.45;14.58;;;1.20;99.90;;;;;;1940139;73;21059;-73
2022/03/22 06:33:47;;;;;;;27.87;14.53;;;1.30;99.90;;;;;;1944083;73;21055;-72
2022/03/22 06:36:14;;;;;;;24.55;15.15;;;1.30;99.90;;;;;;1938788;73;21086;-70
2022/03/22 06:38:41;;;;;;;32.43;14.20;;;1.40;99.90;;;;;;1958118;73;21027;-71
2022/03/22 06:41:09;;;;;;;25.88;14.68;;;1.40;99.90;;;;;;1935871;74;20996;-75
2022/03/22 06:43:36;;;;;;;21.05;13.85;;;1.60;99.90;;;;;;1932254;73;21058;-70
2022/03/22 06:46:03;;;;;;;35.83;14.00;;;1.60;99.90;;;;;;1937668;73;21047;-71
2022/03/22 06:48:31;;;;;;;23.83;14.35;;;1.60;99.90;;;;;;1946638;73;21012;-71
2022/03/22 06:50:58;;;;;;;28.83;13.58;;;1.70;99.90;;;;;;1907328;74;21451;-68
2022/03/22 06:53:25;;;;;;;26.70;15.03;;;1.80;99.90;;;;;;1940034;74;21138;-70
2022/03/22 06:55:53;;;;;;;31.15;15.00;;;1.90;99.90;;;;;;1935676;74;21001;-71
2022/03/22 06:58:22;;;;;;;22.15;13.95;;;1.90;99.90;;;;;;1935563;73;21101;-70
2022/03/22 07:00:49;;;;;;;20.32;13.90;;;2.20;99.90;;;;;;1931975;73;21545;-72
2022/03/22 07:03:17;;;;;;;22.35;13.80;;;2.30;99.90;;;;;;1948635;73;21059;-73
2022/03/22 07:05:47;;;;;;;28.42;14.85;;;2.30;99.90;;;;;;1935783;73;21063;-70
2022/03/22 07:08:15;;;;;;;27.73;14.60;;;2.30;99.90;;;;;;1933458;73;21145;-71
2022/03/22 07:11:47;;;;;;;24.92;13.25;;;2.30;99.90;;;;;;1945796;73;21145;-72
2022/03/22 07:13:11;;;;;;;35.23;15.60;;;2.40;99.90;;;;;;1934502;73;21084;-72
2022/03/22 07:15:39;;;;;;;25.85;14.60;;;2.50;99.90;;;;;;1933162;73;21056;-73
2022/03/22 07:18:14;;;;;;;27.37;14.43;;;2.50;99.90;;;;;;1932878;73;21545;-71
2022/03/22 07:20:39;;;;;;;36.13;16.20;;;2.60;99.90;;;;;;1930675;73;21209;-71
2022/03/22 07:23:06;;;;;;;31.97;18.90;;;2.70;99.90;;;;;;1958483;73;21042;-71
2022/03/22 07:25:35;;;;;;;45.90;18.27;;;2.90;99.90;;;;;;1914212;73;21127;-72
2022/03/22 07:28:02;;;;;;;30.00;21.30;;;3.10;99.90;;;;;;1935785;74;21108;-70
2022/03/22 07:30:30;;;;;;;38.30;21.68;;;3.20;99.90;;;;;;1937677;73;21214;-70
2022/03/22 07:32:57;;;;;;;29.67;17.92;;;3.30;99.90;;;;;;1938985;73;21055;-72
2022/03/22 07:35:24;;;;;;;25.85;14.90;;;3.50;99.90;;;;;;1951105;73;21459;-72
2022/03/22 07:37:52;;;;;;;23.92;14.65;;;3.60;99.90;;;;;;1932436;73;21054;-71
2022/03/22 07:40:20;;;;;;;25.10;14.13;;;3.70;99.90;;;;;;1938023;73;21048;-70
2022/03/22 07:42:48;;;;;;;22.70;14.07;;;3.80;99.90;;;;;;1932262;73;21231;-72
2022/03/22 07:45:19;;;;;;;28.02;15.50;;;3.90;99.90;;;;;;1932538;73;21064;-71
2022/03/22 07:47:45;;;;;;;24.87;14.35;;;4.00;99.90;;;;;;1930219;73;21511;-70
2022/03/22 07:53:00;;;;;;;23.00;13.68;;;4.20;99.90;;;;;;1933118;73;21081;-70
2022/03/22 07:55:28;;;;;;;26.45;14.40;;;4.40;99.90;;;;;;1935607;74;21036;-70
2022/03/22 07:57:57;;;;;;;18.02;12.23;;;4.70;99.90;;;;;;1935925;74;21107;-71
2022/03/22 08:00:26;;;;;;;21.73;12.75;;;4.80;99.90;;;;;;1902891;74;21452;-70
2022/03/22 08:02:54;;;;;;;21.68;13.48;;;4.80;99.90;;;;;;1931791;73;21067;-70
2022/03/22 08:05:22;;;;;;;21.62;14.33;;;5.00;99.90;;;;;;1933806;73;21197;-70
2022/03/22 08:07:49;;;;;;;22.30;13.75;;;5.20;99.90;;;;;;1932103;73;21064;-71
2022/03/22 08:10:18;;;;;;;24.72;13.20;;;5.40;99.90;;;;;;1935536;73;21060;-71
2022/03/22 08:12:46;;;;;;;27.95;13.95;;;5.60;99.90;;;;;;1933475;73;21055;-71
2022/03/22 08:15:14;;;;;;;21.62;12.88;;;5.80;99.90;;;;;;1931432;73;21046;-71
2022/03/22 08:17:41;;;;;;;21.55;12.10;;;6.00;99.90;;;;;;1940685;73;21045;-71
2022/03/22 08:20:10;;;;;;;20.92;11.83;;;6.30;99.90;;;;;;1932495;73;21150;-71
2022/03/22 08:22:51;;;;;;;19.60;12.90;;;6.60;99.90;;;;;;1936052;73;21152;-70
2022/03/22 08:25:24;;;;;;;26.97;12.37;;;6.80;99.90;;;;;;1942575;73;21141;-72
2022/03/22 08:27:52;;;;;;;24.57;12.50;;;7.30;99.90;;;;;;1932885;73;21569;-71
2022/03/22 08:30:23;;;;;;;18.65;12.20;;;7.60;99.90;;;;;;1933789;73;21550;-72
2022/03/22 08:32:51;;;;;;;19.57;12.45;;;7.80;99.90;;;;;;1933132;73;21044;-71
2022/03/22 08:35:19;;;;;;;18.30;12.20;;;7.90;99.90;;;;;;1942400;73;21148;-71
2022/03/22 08:37:46;;;;;;;23.70;12.50;;;8.10;99.90;;;;;;1943510;73;21157;-72
2022/03/22 08:40:14;;;;;;;18.57;12.03;;;8.20;99.90;;;;;;1930726;73;21037;-72
2022/03/22 08:42:46;;;;;;;25.72;12.95;;;8.50;99.90;;;;;;1938917;73;21097;-71
2022/03/22 08:45:18;;;;;;;19.40;12.05;;;8.80;99.90;;;;;;1935530;73;21530;-71
2022/03/22 08:47:47;;;;;;;23.35;12.18;;;8.90;99.90;;;;;;1932014;73;21165;-71
2022/03/22 08:50:16;;;;;;;18.70;12.00;;;9.30;99.90;;;;;;1935431;73;21245;-71
2022/03/22 08:52:44;;;;;;;24.32;12.28;;;9.60;99.90;;;;;;1936297;73;21518;-71
2022/03/22 08:55:15;;;;;;;23.35;12.70;;;9.70;99.90;;;;;;1935419;73;21028;-71
2022/03/22 08:57:43;;;;;;;24.05;12.15;;;9.70;99.90;;;;;;1932750;73;21071;-70
2022/03/22 09:00:12;;;;;;;23.05;12.23;;;9.90;99.90;;;;;;1935515;74;21105;-70
2022/03/22 09:02:40;;;;;;;16.20;11.73;;;9.60;99.90;;;;;;1935564;73;21160;-71
2022/03/22 09:07:56;;;;;;;23.10;11.83;;;10.00;99.90;;;;;;1942370;73;21137;-71
2022/03/22 09:10:28;;;;;;;18.77;11.93;;;10.50;99.90;;;;;;1947610;73;21074;-71
2022/03/22 09:12:57;;;;;;;25.23;12.37;;;10.80;99.90;;;;;;1937161;73;21467;-70
2022/03/22 09:15:26;;;;;;;21.52;11.83;;;11.30;99.90;;;;;;1930814;73;21113;-69
2022/03/22 09:17:55;;;;;;;20.27;11.88;;;11.20;99.90;;;;;;1956203;73;21108;-70
2022/03/22 09:20:23;;;;;;;21.90;12.78;;;11.10;99.90;;;;;;1942517;73;21388;-69
2022/03/22 09:22:54;;;;;;;19.00;11.85;;;11.70;99.90;;;;;;1932742;73;21040;-71
2022/03/22 09:25:24;;;;;;;18.95;11.22;;;12.10;99.90;;;;;;1937025;73;21131;-72
2022/03/22 09:27:52;;;;;;;24.10;11.70;;;12.10;99.90;;;;;;1933648;73;21128;-72
2022/03/22 09:30:19;;;;;;;21.35;13.43;;;12.70;99.90;;;;;;1933119;73;21260;-74
2022/03/22 09:32:46;;;;;;;21.70;12.82;;;12.50;99.90;;;;;;1947967;73;21015;-71
2022/03/22 09:35:19;;;;;;;16.32;11.10;;;12.70;99.90;;;;;;1935877;74;21475;-71
2022/03/22 09:37:45;;;;;;;21.02;11.43;;;12.90;99.90;;;;;;1932507;73;21099;-72
2022/03/22 09:40:13;;;;;;;22.95;12.28;;;13.20;99.90;;;;;;1937828;73;21031;-72
2022/03/22 09:42:45;;;;;;;18.73;12.35;;;13.70;99.90;;;;;;1935751;74;21000;-71
2022/03/22 09:45:14;;;;;;;18.23;11.90;;;13.10;99.90;;;;;;1936416;73;21124;-71
2022/03/22 09:47:42;;;;;;;21.35;11.48;;;13.10;99.90;;;;;;1937247;73;21067;-71
2022/03/22 09:50:10;;;;;;;17.35;11.50;;;13.10;99.50;;;;;;1932940;73;21054;-72
2022/03/22 09:52:38;;;;;;;23.47;12.70;;;13.50;98.60;;;;;;1935770;74;21036;-71
2022/03/22 09:55:06;;;;;;;16.65;11.97;;;13.10;99.40;;;;;;1940729;73;21164;-70
2022/03/22 09:57:34;;;;;;;16.60;12.35;;;13.30;98.70;;;;;;1935581;73;21058;-70
2022/03/22 10:00:01;;;;;;;24.63;12.00;;;13.40;97.70;;;;;;1929757;73;21463;-71
2022/03/22 10:02:30;;;;;;;20.95;12.58;;;13.70;97.90;;;;;;1935468;73;21051;-71
2022/03/22 10:04:57;;;;;;;18.20;11.75;;;13.30;97.80;;;;;;1935657;74;21113;-71
2022/03/22 10:07:24;;;;;;;19.75;13.10;;;13.80;96.70;;;;;;1935538;73;21071;-71
2022/03/22 10:09:54;;;;;;;28.67;11.73;;;13.90;96.60;;;;;;1929112;73;21118;-71
2022/03/22 10:12:32;;;;;;;20.55;11.88;;;14.50;94.70;;;;;;1948370;73;21480;-72
2022/03/22 10:15:11;;;;;;;21.37;13.43;;;14.40;94.20;;;;;;1933742;73;21035;-71
2022/03/22 10:17:39;;;;;;;17.42;11.93;;;14.40;93.70;;;;;;1940637;73;21059;-72
2022/03/22 10:20:07;;;;;;;17.40;12.33;;;14.60;92.80;;;;;;1935854;74;21032;-70
2022/03/22 10:22:35;;;;;;;20.65;12.47;;;14.70;93.80;;;;;;1935632;73;21496;-70
2022/03/22 10:25:04;;;;;;;16.48;12.00;;;14.70;92.70;;;;;;1929900;73;21182;-71
2022/03/22 10:27:34;;;;;;;19.05;12.28;;;15.10;92.10;;;;;;1935121;73;21063;-71
2022/03/22 10:30:06;;;;;;;20.15;12.63;;;15.20;89.60;;;;;;1937241;73;21554;-71
2022/03/22 10:32:42;;;;;;;21.27;12.78;;;15.30;90.00;;;;;;1935878;74;21128;-70
2022/03/22 10:35:34;;;;;;;25.02;12.98;;;15.50;88.30;;;;;;1929712;73;21149;-70
2022/03/22 10:38:06;;;;;;;26.35;12.78;;;15.70;85.40;;;;;;1939749;73;21071;-69
2022/03/22 10:40:42;;;;;;;17.57;11.22;;;16.10;82.70;;;;;;1928013;73;21064;-71
2022/03/22 10:43:18;;;;;;;20.62;12.90;;;16.60;83.10;;;;;;1935806;73;21064;-75
2022/03/22 10:45:54;;;;;;;20.40;12.75;;;16.70;80.60;;;;;;1932064;73;21031;-77
2022/03/22 10:48:27;;;;;;;17.20;12.20;;;15.80;82.80;;;;;;1932334;73;21136;-73
2022/03/22 10:50:55;;;;;;;21.17;12.23;;;16.00;82.20;;;;;;1932848;73;21060;-71
2022/03/22 10:53:24;;;;;;;19.27;13.88;;;16.40;82.30;;;;;;1942163;73;21066;-73
2022/03/22 10:55:51;;;;;;;23.50;12.45;;;16.80;77.70;;;;;;1935893;73;21125;-72
2022/03/22 10:58:25;;;;;;;22.27;13.30;;;16.50;78.30;;;;;;1933970;73;21023;-71
2022/03/22 11:00:53;;;;;;;18.95;11.53;;;16.30;78.30;;;;;;1935942;73;21137;-70
2022/03/22 11:03:20;;;;;;;25.20;13.08;;;17.20;76.50;;;;;;1912181;74;21137;-70
2022/03/22 11:05:53;;;;;;;22.20;12.55;;;17.10;72.90;;;;;;1929270;73;21058;-70
2022/03/22 11:08:22;;;;;;;21.42;12.90;;;16.70;75.20;;;;;;1930374;73;21132;-70
2022/03/22 11:10:51;;;;;;;19.48;12.40;;;16.30;75.60;;;;;;1930945;73;21137;-70
2022/03/22 11:13:18;;;;;;;19.73;11.57;;;16.80;73.80;;;;;;1924622;73;21597;-75
2022/03/22 11:15:46;;;;;;;23.73;13.00;;;16.30;72.70;;;;;;1941087;73;21094;-72
2022/03/22 11:18:15;;;;;;;25.10;12.85;;;16.40;73.30;;;;;;1937568;73;21061;-74
2022/03/22 11:20:58;;;;;;;23.50;13.10;;;16.60;73.30;;;;;;1935659;73;21056;-73
2022/03/22 11:23:27;;;;;;;23.77;13.22;;;16.80;73.00;;;;;;1934503;73;21059;-75
2022/03/22 11:25:54;;;;;;;21.05;12.13;;;17.20;71.20;;;;;;1931647;73;21066;-75
2022/03/22 11:28:24;;;;;;;24.57;12.60;;;17.90;69.20;;;;;;1941636;73;21037;-74
2022/03/22 11:30:52;;;;;;;21.05;13.95;;;18.60;66.20;;;;;;1935792;73;21035;-75
2022/03/22 11:36:17;;;;;;;16.10;11.38;;;19.20;61.80;;;;;;1934910;73;21127;-73
2022/03/22 11:38:52;;;;;;;19.98;12.63;;;19.10;63.50;;;;;;1925256;73;21054;-73
2022/03/22 11:44:36;;;;;;;22.40;12.35;;;20.20;58.80;;;;;;1945234;74;21021;-73
2022/03/22 11:47:07;;;;;;;21.68;12.75;;;20.40;58.80;;;;;;1937173;73;21114;-74
2022/03/22 11:50:01;;;;;;;17.00;10.88;;;20.30;57.60;;;;;;1942649;73;21051;-72
2022/03/22 11:52:39;;;;;;;17.35;12.20;;;19.50;58.50;;;;;;1938988;73;21056;-72
2022/03/22 11:55:11;;;;;;;15.72;11.68;;;19.90;57.80;;;;;;1935833;73;21182;-73
2022/03/22 11:57:59;;;;;;;21.33;12.80;;;20.00;58.00;;;;;;1935867;74;21051;-73
2022/03/22 12:01:00;;;;;;;17.15;11.75;;;20.30;58.90;;;;;;1921561;73;21058;-74
2022/03/22 12:03:35;;;;;;;26.45;11.90;;;20.90;56.80;;;;;;1938478;73;21098;-74
2022/03/22 12:06:12;;;;;;;19.67;11.40;;;21.70;54.60;;;;;;1944134;73;21063;-73
2022/03/22 12:08:42;;;;;;;19.32;11.38;;;22.10;54.50;;;;;;1947479;73;21133;-74
2022/03/22 12:11:15;;;;;;;18.57;12.03;;;22.10;52.80;;;;;;1936033;74;21386;-74
2022/03/22 12:13:49;;;;;;;15.85;11.78;;;22.30;51.00;;;;;;1908591;73;21054;-75
2022/03/22 12:16:15;;;;;;;17.27;12.18;;;20.70;54.30;;;;;;1943139;73;21216;-75
2022/03/22 12:18:43;;;;;;;29.87;13.25;;;20.60;53.00;;;;;;1932495;73;21063;-73
2022/03/22 12:21:18;;;;;;;20.45;13.38;;;19.30;55.60;;;;;;1933962;73;21133;-72
2022/03/22 12:23:46;;;;;;;22.13;13.40;;;19.60;56.10;;;;;;1932697;73;21098;-72
2022/03/22 12:26:14;;;;;;;26.33;12.58;;;20.00;54.90;;;;;;1941514;73;21580;-73
2022/03/22 12:28:51;;;;;;;19.57;12.88;;;20.60;54.80;;;;;;1907666;73;21419;-73
2022/03/22 12:31:21;;;;;;;23.10;13.83;;;21.10;53.50;;;;;;1948150;73;21067;-73
2022/03/22 12:33:59;;;;;;;20.20;12.78;;;20.80;53.30;;;;;;1939921;73;21067;-74
2022/03/22 12:36:26;;;;;;;17.30;12.55;;;20.50;54.40;;;;;;1931948;73;21520;-75
2022/03/22 12:38:54;;;;;;;23.27;13.15;;;21.00;53.60;;;;;;1938764;73;21079;-75
2022/03/22 12:41:21;;;;;;;16.37;12.28;;;21.10;53.30;;;;;;1932531;73;21153;-74
2022/03/22 12:43:48;;;;;;;36.23;13.05;;;20.90;52.90;;;;;;1909942;73;21125;-73
2022/03/22 12:46:16;;;;;;;18.10;11.95;;;21.40;53.20;;;;;;1905432;74;21156;-74
2022/03/22 12:48:43;;;;;;;22.67;12.80;;;21.90;53.20;;;;;;1930391;73;21066;-74
2022/03/22 12:51:11;;;;;;;21.95;12.35;;;22.30;51.70;;;;;;1944294;73;21129;-73
2022/03/22 12:53:39;;;;;;;15.35;11.48;;;21.70;52.70;;;;;;1941575;73;21083;-74
2022/03/22 12:56:17;;;;;;;17.90;11.35;;;22.30;52.50;;;;;;1936227;74;21067;-74
2022/03/22 12:58:44;;;;;;;18.42;11.48;;;22.40;51.60;;;;;;1933953;73;21484;-75
2022/03/22 13:01:11;;;;;;;21.42;12.15;;;22.50;52.60;;;;;;1895497;74;21067;-73
2022/03/22 13:03:39;;;;;;;17.67;10.88;;;23.00;51.00;;;;;;1935217;73;21041;-72
2022/03/22 13:06:09;;;;;;;18.32;10.60;;;23.20;50.60;;;;;;1937926;73;21168;-74
2022/03/22 13:11:27;;;;;;;17.37;11.85;;;22.70;49.70;;;;;;1945726;73;21048;-73